Time;durP1;ratioP1;P1;durP2;ratioP2;P2;SDS_P1;SDS_P2;PMS_P1;PMS_P2;Temp;Humidity;BMP_temperature;BMP_pressure;BME280_temperature;BME280_humidity;BME280_pressure;Samples;Min_cycle;Max_cycle;Signal;HPM_P1;HPM_P2
2022/09/16 00:00:04;;;;;;;5.97;1.50;;;;;;;12.00;nan;100930.16;5033633;28;20075;-54
2022/09/16 00:02:29;;;;;;;4.70;1.00;;;;;;;12.15;nan;100955.97;5033400;28;20029;-55
2022/09/16 00:04:55;;;;;;;5.63;1.48;;;;;;;11.92;nan;100897.91;5033689;28;20041;-52
2022/09/16 00:07:20;;;;;;;6.05;1.38;;;;;;;12.24;nan;100951.22;5033856;28;20038;-55
2022/09/16 00:09:45;;;;;;;8.20;1.40;;;;;;;12.35;nan;100956.09;5032150;28;20084;-52
2022/09/16 00:12:11;;;;;;;8.68;1.75;;;;;;;12.37;nan;100960.38;5033272;28;20088;-54
2022/09/16 00:14:36;;;;;;;4.20;0.75;;;;;;;12.22;nan;100934.59;5031798;28;20132;-55
2022/09/16 00:17:01;;;;;;;4.90;0.90;;;;;;;12.46;nan;100959.22;5033131;28;20487;-55
2022/09/16 00:19:27;;;;;;;5.43;1.23;;;;;;;12.34;nan;100934.13;5031873;28;20125;-55
2022/09/16 00:21:52;;;;;;;5.55;1.00;;;;;;;12.66;nan;100988.34;5033567;28;20041;-54
2022/09/16 00:24:17;;;;;;;2.53;0.52;;;;;;;12.70;nan;100982.00;5032930;28;20404;-54
2022/09/16 00:26:42;;;;;;;6.45;1.63;;;;;;;12.43;nan;100931.13;5033041;28;20040;-52
2022/09/16 00:29:08;;;;;;;4.13;0.95;;;;;;;12.61;nan;100990.28;5033047;28;20068;-53
2022/09/16 00:31:34;;;;;;;5.13;0.90;;;;;;;12.10;nan;100913.94;5015343;28;20038;-55
2022/09/16 00:33:59;;;;;;;2.78;0.90;;;;;;;12.11;nan;100943.84;5032869;28;20045;-54
2022/09/16 00:36:25;;;;;;;6.28;1.13;;;;;;;12.20;nan;100983.06;5032759;28;20042;-53
2022/09/16 00:38:52;;;;;;;2.60;1.23;;;;;;;11.80;nan;100922.97;5033042;28;20049;-54
2022/09/16 00:41:21;;;;;;;4.30;0.98;;;;;;;11.73;nan;100911.78;5031676;28;20041;-55
2022/09/16 00:43:49;;;;;;;4.25;0.65;;;;;;;11.67;nan;100911.97;5031417;28;20116;-55
2022/09/16 00:46:16;;;;;;;2.38;0.93;;;;;;;11.68;nan;100921.59;5032609;28;20041;-54
2022/09/16 00:48:42;;;;;;;2.25;0.70;;;;;;;11.85;nan;100945.63;5031697;28;20049;-52
2022/09/16 00:51:08;;;;;;;3.58;0.80;;;;;;;11.75;nan;100922.28;5031516;28;20029;-54
2022/09/16 00:53:37;;;;;;;2.33;0.80;;;;;;;11.97;nan;100956.63;5032769;28;20370;-56
2022/09/16 00:56:05;;;;;;;3.13;0.95;;;;;;;11.99;nan;100957.47;5031266;28;20037;-54
2022/09/16 00:58:39;;;;;;;5.78;0.98;;;;;;;11.38;nan;100850.66;5032502;28;20488;-55
2022/09/16 01:01:05;;;;;;;10.10;1.80;;;;;;;12.00;nan;100965.31;5031035;28;20045;-53
2022/09/16 01:03:32;;;;;;;7.13;1.40;;;;;;;11.98;nan;100975.06;5032562;28;20033;-55
2022/09/16 01:05:57;;;;;;;7.47;1.10;;;;;;;11.94;nan;100957.59;5030696;28;20033;-53
2022/09/16 01:08:23;;;;;;;3.85;1.00;;;;;;;11.94;nan;100965.53;5032454;28;20038;-56
2022/09/16 01:10:49;;;;;;;10.70;1.88;;;;;;;11.96;nan;100963.72;5031637;28;20029;-54
2022/09/16 01:13:14;;;;;;;3.67;0.63;;;;;;;11.94;nan;100964.69;5031345;28;20211;-53
2022/09/16 01:15:58;;;;;;;5.75;1.10;;;;;;;11.95;nan;100961.97;5031036;28;20045;-53
2022/09/16 01:18:41;;;;;;;3.25;0.70;;;;;;;11.98;nan;100958.38;5031169;28;20545;-53
2022/09/16 01:21:25;;;;;;;6.10;0.90;;;;;;;12.03;nan;100969.59;5031109;28;20084;-53
2022/09/16 01:24:03;;;;;;;3.33;0.60;;;;;;;12.01;nan;100966.16;5032289;28;20063;-55
2022/09/16 01:26:50;;;;;;;3.33;0.90;;;;;;;12.07;nan;100973.88;5032444;28;20037;-55
2022/09/16 01:29:52;;;;;;;3.97;0.70;;;;;;;12.00;nan;100973.22;5032267;28;20026;-49
2022/09/16 01:32:51;;;;;;;4.82;1.10;;;;;;;11.97;nan;100980.38;5031998;28;20124;-57
2022/09/16 01:35:28;;;;;;;6.05;1.55;;;;;;;11.88;nan;100952.56;5032211;28;20041;-53
2022/09/16 01:38:06;;;;;;;3.42;1.02;;;;;;;11.88;nan;100963.09;5032340;28;20077;-53
2022/09/16 01:41:10;;;;;;;4.20;0.98;;;;;;;11.77;nan;100962.63;5030815;28;20338;-52
2022/09/16 01:43:44;;;;;;;5.82;1.15;;;;;;;11.51;nan;100928.38;4990142;28;20042;-55
2022/09/16 01:46:24;;;;;;;7.63;1.00;;;;;;;11.65;nan;100957.75;5022691;28;20041;-55
2022/09/16 01:48:54;;;;;;;6.93;1.10;;;;;;;11.42;nan;100923.41;5030760;28;20033;-52
2022/09/16 01:51:35;;;;;;;8.52;1.08;;;;;;;11.37;nan;100909.53;5032292;28;20034;-53
2022/09/16 01:54:06;;;;;;;5.85;1.08;;;;;;;11.70;nan;100966.41;5030804;28;20473;-54
2022/09/16 01:56:50;;;;;;;5.30;1.10;;;;;;;11.70;nan;100977.78;5031920;28;20065;-56
2022/09/16 01:59:19;;;;;;;7.05;1.17;;;;;;;11.72;nan;100972.50;5030724;28;20048;-53
2022/09/16 02:01:49;;;;;;;5.18;0.98;;;;;;;11.59;nan;100943.00;5032168;28;20033;-56
2022/09/16 02:04:19;;;;;;;11.25;1.10;;;;;;;11.35;nan;100898.19;5030622;28;20041;-49
2022/09/16 02:06:45;;;;;;;5.38;1.27;;;;;;;11.68;nan;100966.41;5032060;28;20041;-52
2022/09/16 02:09:16;;;;;;;5.72;1.08;;;;;;;11.75;nan;100973.25;5030524;28;20447;-51
2022/09/16 02:11:43;;;;;;;9.68;1.30;;;;;;;11.53;nan;100935.31;5030540;28;20049;-55
2022/09/16 02:14:33;;;;;;;6.68;1.10;;;;;;;11.70;nan;100963.78;5031886;28;20081;-56
2022/09/16 02:17:04;;;;;;;5.80;0.90;;;;;;;11.41;nan;100932.25;5029905;28;20497;-56
2022/09/16 02:19:35;;;;;;;4.68;1.50;;;;;;;11.59;nan;100945.63;5031845;28;20034;-55
2022/09/16 02:22:03;;;;;;;9.35;1.67;;;;;;;11.54;nan;100915.09;5034380;28;20029;-55
2022/09/16 02:24:29;;;;;;;6.43;0.85;;;;;;;11.58;nan;100908.81;5017621;28;20400;-55
2022/09/16 02:26:59;;;;;;;6.43;1.08;;;;;;;11.65;nan;100916.44;5034212;28;20087;-56
2022/09/16 02:29:27;;;;;;;6.00;1.30;;;;;;;11.99;nan;100955.69;5034229;28;20239;-53
2022/09/16 02:31:55;;;;;;;5.75;1.05;;;;;;;12.06;nan;100983.56;5035341;28;20576;-55
2022/09/16 02:34:25;;;;;;;5.95;1.00;;;;;;;11.77;nan;100923.06;5035158;28;20087;-56
2022/09/16 02:36:54;;;;;;;6.37;1.83;;;;;;;12.02;nan;100960.84;5034084;28;20108;-57
2022/09/16 02:39:25;;;;;;;4.30;1.05;;;;;;;11.79;nan;100914.19;5034116;28;20311;-54
2022/09/16 02:41:50;;;;;;;4.90;1.60;;;;;;;12.06;nan;100970.38;5035295;28;20037;-56
2022/09/16 02:44:16;;;;;;;7.60;1.10;;;;;;;12.00;nan;100977.63;5034931;28;20037;-55
2022/09/16 02:46:44;;;;;;;3.88;1.15;;;;;;;11.94;nan;100986.63;5033864;28;20037;-53
2022/09/16 02:49:18;;;;;;;3.78;0.82;;;;;;;11.85;nan;101000.13;5034944;28;20029;-54
2022/09/16 02:52:08;;;;;;;4.50;0.75;;;;;;;11.82;nan;101005.56;5035162;28;20033;-58
2022/09/16 02:54:39;;;;;;;4.25;0.80;;;;;;;11.73;nan;100990.03;5033621;28;20511;-53
2022/09/16 02:57:04;;;;;;;4.13;0.82;;;;;;;11.58;nan;100967.66;5034904;28;20439;-55
2022/09/16 02:59:30;;;;;;;6.25;0.60;;;;;;;11.54;nan;100967.81;5034934;28;20044;-55
2022/09/16 03:01:58;;;;;;;3.30;0.70;;;;;;;11.55;nan;100978.31;5033571;28;20041;-53
2022/09/16 03:04:23;;;;;;;3.78;0.80;;;;;;;11.49;nan;100981.16;5033821;28;20033;-55
2022/09/16 03:06:49;;;;;;;2.05;0.68;;;;;;;11.12;nan;100927.97;5034834;28;20029;-55
2022/09/16 03:09:17;;;;;;;6.05;1.08;;;;;;;11.30;nan;100966.84;5033533;28;20041;-55
2022/09/16 03:12:14;;;;;;;4.82;1.15;;;;;;;11.34;nan;100962.34;5033353;28;20056;-55
2022/09/16 03:14:49;;;;;;;3.00;1.10;;;;;;;11.29;nan;100960.72;5032004;28;20049;-54
2022/09/16 03:17:27;;;;;;;4.03;0.90;;;;;;;11.21;nan;100956.63;5034535;28;20049;-52
2022/09/16 03:20:02;;;;;;;4.10;0.75;;;;;;;11.26;nan;100957.34;5034568;28;20100;-54
2022/09/16 03:23:06;;;;;;;2.85;0.50;;;;;;;11.28;nan;100959.03;5033191;28;20033;-57
2022/09/16 03:25:43;;;;;;;3.55;0.70;;;;;;;11.21;nan;100940.81;5011321;28;20045;-55
2022/09/16 03:28:18;;;;;;;4.50;0.70;;;;;;;11.26;nan;100957.34;5034335;28;20116;-56
2022/09/16 03:30:59;;;;;;;4.50;0.75;;;;;;;10.89;nan;100893.59;5034118;28;20515;-57
2022/09/16 03:33:31;;;;;;;5.18;1.08;;;;;;;11.08;nan;100937.75;5032481;28;20053;-55
2022/09/16 03:35:58;;;;;;;5.55;0.90;;;;;;;10.78;nan;100898.34;5034069;28;20040;-56
2022/09/16 03:38:24;;;;;;;2.60;0.88;;;;;;;11.06;nan;100962.41;5032871;28;20091;-55
2022/09/16 03:40:49;;;;;;;4.55;1.02;;;;;;;11.03;nan;100962.50;5033962;28;20037;-56
2022/09/16 03:43:16;;;;;;;2.78;0.88;;;;;;;10.79;nan;100900.97;5034087;28;20041;-55
2022/09/16 03:45:42;;;;;;;3.40;0.73;;;;;;;10.84;nan;100912.19;5032754;28;20091;-53
2022/09/16 03:48:08;;;;;;;6.07;1.70;;;;;;;10.84;nan;100909.56;5032860;28;20061;-55
2022/09/16 03:50:34;;;;;;;4.47;0.95;;;;;;;10.85;nan;100905.16;5033814;28;20083;-53
2022/09/16 03:53:00;;;;;;;2.83;0.90;;;;;;;11.29;nan;100965.16;5032506;28;20029;-57
2022/09/16 03:55:25;;;;;;;9.18;1.40;;;;;;;11.22;nan;100951.31;5033730;28;20056;-53
2022/09/16 03:57:52;;;;;;;7.28;1.08;;;;;;;11.26;nan;100952.09;5033713;28;20116;-52
2022/09/16 04:00:18;;;;;;;4.30;0.73;;;;;;;11.06;nan;100907.94;5015929;28;20184;-53
2022/09/16 04:02:43;;;;;;;5.78;1.08;;;;;;;11.23;nan;100941.63;5033541;28;20117;-56
2022/09/16 04:05:08;;;;;;;4.93;1.20;;;;;;;11.39;nan;100952.50;5033691;28;20036;-57
2022/09/16 04:07:34;;;;;;;5.22;1.73;;;;;;;11.38;nan;100941.13;5032414;28;20445;-54
2022/09/16 04:10:00;;;;;;;8.65;1.00;;;;;;;11.11;nan;100886.72;5032289;28;20036;-56
2022/09/16 04:12:26;;;;;;;4.88;0.90;;;;;;;11.24;nan;100920.50;5033348;28;20500;-57
2022/09/16 04:14:51;;;;;;;4.07;1.02;;;;;;;11.10;nan;100890.25;5033531;28;20040;-58
2022/09/16 04:17:17;;;;;;;6.28;1.10;;;;;;;11.44;nan;100940.88;5033514;28;20441;-59
2022/09/16 04:19:42;;;;;;;5.25;1.25;;;;;;;11.32;nan;100936.06;5033456;28;20029;-56
2022/09/16 04:22:07;;;;;;;7.80;2.67;;;;;;;11.27;nan;100952.00;5033247;28;20099;-56
2022/09/16 04:24:33;;;;;;;3.25;1.08;;;;;;;11.12;nan;100941.13;5033328;28;20118;-54
2022/09/16 04:26:58;;;;;;;4.78;1.25;;;;;;;10.79;nan;100884.28;5032980;28;20037;-56
2022/09/16 04:29:23;;;;;;;6.38;1.55;;;;;;;10.79;nan;100894.81;5033060;28;20091;-55
2022/09/16 04:31:48;;;;;;;4.60;1.10;;;;;;;11.07;nan;100936.00;5033110;28;20037;-55
2022/09/16 04:34:14;;;;;;;6.10;1.70;;;;;;;11.07;nan;100953.56;5033028;28;20049;-54
2022/09/16 04:36:39;;;;;;;6.22;1.13;;;;;;;11.01;nan;100936.19;5033055;28;20041;-55
2022/09/16 04:39:05;;;;;;;6.53;1.40;;;;;;;10.73;nan;100895.88;5032927;28;20041;-55
2022/09/16 04:41:31;;;;;;;9.70;1.30;;;;;;;10.70;nan;100880.19;5033003;28;20061;-53
2022/09/16 04:43:58;;;;;;;7.72;1.60;;;;;;;10.68;nan;100877.59;5030987;28;20488;-54
2022/09/16 04:46:25;;;;;;;9.13;1.95;;;;;;;10.92;nan;100911.94;5032769;28;20395;-54
2022/09/16 04:48:52;;;;;;;8.00;1.70;;;;;;;10.92;nan;100912.78;5015327;28;20064;-53
2022/09/16 04:51:18;;;;;;;8.95;2.33;;;;;;;11.03;nan;100933.53;5032922;28;20446;-56
2022/09/16 04:53:44;;;;;;;6.57;2.20;;;;;;;11.04;nan;100929.97;5032694;28;20386;-56
2022/09/16 04:56:17;;;;;;;4.28;1.38;;;;;;;11.01;nan;100945.88;5031385;28;20117;-53
2022/09/16 04:58:48;;;;;;;6.93;1.35;;;;;;;10.97;nan;100931.97;5031761;28;20075;-55
2022/09/16 05:01:16;;;;;;;9.87;2.00;;;;;;;11.07;nan;100914.94;5031428;28;20037;-54
2022/09/16 05:03:46;;;;;;;10.90;1.60;;;;;;;11.31;nan;100942.25;5032995;28;20312;-55
2022/09/16 05:06:14;;;;;;;6.28;1.25;;;;;;;11.30;nan;100930.84;5031305;28;20030;-56
2022/09/16 05:08:39;;;;;;;7.82;1.40;;;;;;;11.46;nan;100944.34;5031274;28;20033;-55
2022/09/16 05:11:10;;;;;;;10.82;1.65;;;;;;;11.30;nan;100893.94;5032501;28;20099;-57
2022/09/16 05:13:36;;;;;;;4.70;1.02;;;;;;;11.68;nan;100949.72;5032444;28;20041;-53
2022/09/16 05:16:10;;;;;;;5.57;1.48;;;;;;;11.40;nan;100915.56;5032231;28;20472;-56
2022/09/16 05:18:36;;;;;;;5.72;1.15;;;;;;;11.56;nan;100937.84;5031260;28;20061;-50
2022/09/16 05:21:04;;;;;;;4.50;1.23;;;;;;;11.61;nan;100959.66;5014631;28;20044;-54
2022/09/16 05:23:29;;;;;;;7.70;0.95;;;;;;;11.53;nan;100956.41;5031055;28;20068;-54
2022/09/16 05:25:59;;;;;;;3.17;0.95;;;;;;;11.21;nan;100899.53;5031369;28;20065;-55
2022/09/16 05:28:25;;;;;;;3.70;1.00;;;;;;;11.67;nan;100966.50;5031104;28;20044;-55
2022/09/16 05:30:50;;;;;;;5.53;1.05;;;;;;;11.57;nan;100938.72;5031180;28;20124;-54
2022/09/16 05:33:15;;;;;;;5.72;1.00;;;;;;;11.74;nan;100963.59;5032271;28;20090;-53
2022/09/16 05:35:41;;;;;;;3.78;1.05;;;;;;;11.70;nan;100953.22;5030872;28;20473;-53
2022/09/16 05:38:07;;;;;;;5.28;1.13;;;;;;;11.58;nan;100921.97;5032017;28;20191;-56
2022/09/16 05:40:32;;;;;;;5.95;0.93;;;;;;;12.03;nan;100986.31;5031033;28;20552;-54
2022/09/16 05:42:57;;;;;;;6.90;1.20;;;;;;;12.24;nan;100988.16;5031873;28;20061;-55
2022/09/16 05:45:22;;;;;;;6.13;1.23;;;;;;;12.44;nan;100984.78;5031736;28;20496;-54
2022/09/16 05:47:48;;;;;;;11.68;1.20;;;;;;;12.62;nan;100984.09;5032051;28;20042;-53
2022/09/16 05:50:14;;;;;;;5.97;1.40;;;;;;;12.72;nan;100988.13;5031990;28;20034;-55
2022/09/16 05:52:39;;;;;;;8.95;1.45;;;;;;;12.39;nan;100915.47;5031045;28;20045;-55
2022/09/16 05:55:05;;;;;;;2.70;0.93;;;;;;;12.56;nan;100939.44;5031567;28;20045;-52
2022/09/16 05:57:30;;;;;;;7.10;1.30;;;;;;;12.85;nan;101012.25;5033538;28;20171;-51
2022/09/16 05:59:55;;;;;;;6.05;1.02;;;;;;;12.32;nan;100966.75;5034501;28;20435;-59
2022/09/16 06:02:21;;;;;;;1.55;0.52;;;;;;;12.20;nan;101039.31;5035666;28;20236;-56
2022/09/16 06:04:46;;;;;;;2.15;0.43;;;;;;;11.40;nan;100997.28;5035419;28;20033;-56
2022/09/16 06:07:12;;;;;;;5.05;1.10;;;;;;;11.21;nan;101006.69;5035382;28;20029;-57
2022/09/16 06:09:37;;;;;;;3.15;1.20;;;;;;;10.92;nan;100999.69;5035884;28;20038;-56
2022/09/16 06:12:02;;;;;;;5.07;0.80;;;;;;;10.93;nan;101019.00;5035553;28;20072;-54
2022/09/16 06:14:28;;;;;;;3.08;0.80;;;;;;;10.74;nan;100981.84;5035313;28;20033;-57
2022/09/16 06:16:53;;;;;;;2.17;0.60;;;;;;;10.38;nan;100931.19;5035545;28;20025;-58
2022/09/16 06:19:19;;;;;;;3.38;1.02;;;;;;;10.66;nan;101002.28;5035496;28;20087;-57
2022/09/16 06:21:45;;;;;;;3.45;0.70;;;;;;;10.56;nan;100996.44;5035509;28;20037;-56
2022/09/16 06:24:11;;;;;;;5.70;0.95;;;;;;;10.50;nan;100994.00;5035773;28;20041;-57
2022/09/16 06:26:39;;;;;;;6.88;1.52;;;;;;;10.38;nan;100975.94;5035795;28;20040;-57
2022/09/16 06:29:05;;;;;;;4.05;0.88;;;;;;;10.05;nan;100922.50;5034347;28;20044;-57
2022/09/16 06:31:31;;;;;;;4.97;1.40;;;;;;;10.51;nan;100986.94;5035534;28;20523;-57
2022/09/16 06:33:57;;;;;;;6.13;1.00;;;;;;;10.56;nan;100979.78;5035316;28;20038;-59
2022/09/16 06:36:31;;;;;;;4.65;1.08;;;;;;;10.70;nan;100985.50;5033682;28;20099;-57
2022/09/16 06:38:56;;;;;;;7.78;1.42;;;;;;;10.80;nan;100988.72;5034991;28;20025;-58
2022/09/16 06:41:22;;;;;;;9.88;1.27;;;;;;;10.49;nan;100921.19;5035202;28;20047;-58
2022/09/16 06:43:50;;;;;;;7.78;1.35;;;;;;;10.96;nan;100992.56;5035128;28;20045;-58
2022/09/16 06:46:17;;;;;;;8.10;2.10;;;;;;;11.07;nan;101004.50;5033753;28;20480;-59
2022/09/16 06:48:44;;;;;;;8.65;2.53;;;;;;;11.03;nan;100958.06;5034852;28;20029;-57
2022/09/16 06:51:15;;;;;;;5.30;1.30;;;;;;;11.28;nan;100981.88;5034826;28;20125;-56
2022/09/16 06:53:40;;;;;;;;;;;;;;;11.43;nan;100978.72;5035461;28;20029;-57
2022/09/16 06:56:10;;;;;;;10.88;1.50;;;;;;;11.52;nan;100986.34;5034841;28;20295;-58
2022/09/16 06:58:36;;;;;;;5.95;1.27;;;;;;;11.58;nan;100965.03;5033746;28;20067;-58
2022/09/16 07:01:08;;;;;;;6.18;1.17;;;;;;;11.78;nan;100967.88;5034702;28;20028;-57
2022/09/16 07:03:42;;;;;;;4.15;1.10;;;;;;;11.93;nan;100955.03;5034666;28;20069;-59
2022/09/16 07:06:08;;;;;;;5.20;1.38;;;;;;;12.13;nan;100952.53;5034801;28;20199;-60
2022/09/16 07:08:35;;;;;;;5.70;1.15;;;;;;;12.52;nan;100958.94;5033749;28;20029;-61
2022/09/16 07:11:05;;;;;;;6.45;1.15;;;;;;;12.67;nan;100902.03;5034397;28;20068;-59
2022/09/16 07:13:31;;;;;;;5.93;1.27;;;;;;;12.89;nan;100880.00;5034441;28;20045;-55
2022/09/16 07:16:02;;;;;;;6.72;1.17;;;;;;;13.63;nan;100954.44;5034178;28;20069;-60
2022/09/16 07:18:29;;;;;;;6.72;1.17;;;;;;;14.03;nan;100979.09;5034734;28;20045;-59
2022/09/16 07:21:03;;;;;;;6.22;0.95;;;;;;;13.78;nan;100929.94;5033355;28;20036;-61
2022/09/16 07:23:32;;;;;;;6.13;0.93;;;;;;;13.83;nan;100946.50;5033182;28;20029;-59
2022/09/16 07:26:18;;;;;;;4.43;0.98;;;;;;;13.65;nan;100956.09;5016668;28;20388;-58
2022/09/16 07:28:45;;;;;;;4.60;1.42;;;;;;;13.77;nan;101012.91;5034481;28;20120;-59
2022/09/16 07:31:16;;;;;;;3.67;1.13;;;;;;;13.62;nan;101032.94;5033323;28;20035;-60
2022/09/16 07:33:44;;;;;;;4.53;0.80;;;;;;;13.39;nan;101039.19;5034465;28;20025;-60
2022/09/16 07:36:11;;;;;;;5.13;0.85;;;;;;;13.13;nan;101030.56;5033632;28;20109;-60
2022/09/16 07:38:37;;;;;;;7.40;1.00;;;;;;;12.90;nan;101027.00;5031531;28;20060;-59
2022/09/16 07:41:07;;;;;;;3.38;0.60;;;;;;;12.71;nan;101020.72;5033266;28;20025;-60
2022/09/16 07:43:32;;;;;;;7.65;1.25;;;;;;;12.67;nan;101020.88;5033818;28;20087;-60
2022/09/16 07:45:58;;;;;;;6.13;1.20;;;;;;;12.27;nan;100976.63;5033685;28;20041;-62
2022/09/16 07:48:24;;;;;;;4.72;1.13;;;;;;;12.27;nan;100971.34;5032208;28;20041;-61
2022/09/16 07:51:02;;;;;;;2.58;0.90;;;;;;;12.22;nan;100952.19;5032204;28;20048;-61
2022/09/16 07:53:28;;;;;;;4.90;1.15;;;;;;;12.48;nan;100996.97;5032948;28;20087;-60
2022/09/16 07:56:15;;;;;;;9.65;2.22;;;;;;;12.56;nan;101010.72;5031664;28;20120;-62
2022/09/16 07:58:41;;;;;;;9.93;3.15;;;;;;;12.70;nan;101008.41;5031511;28;20029;-61
2022/09/16 08:01:07;;;;;;;7.63;1.30;;;;;;;12.27;nan;100929.13;5032668;28;20091;-61
2022/09/16 08:03:34;;;;;;;5.45;1.55;;;;;;;13.14;nan;101035.78;5031539;28;20037;-60
2022/09/16 08:06:00;;;;;;;8.85;1.52;;;;;;;13.20;nan;101032.03;5032252;28;20075;-59
2022/09/16 08:08:26;;;;;;;4.90;1.15;;;;;;;13.05;nan;101003.56;5032600;28;20052;-59
2022/09/16 08:10:53;;;;;;;7.47;1.98;;;;;;;13.23;nan;101058.34;5032286;28;20041;-60
2022/09/16 08:13:19;;;;;;;5.43;1.33;;;;;;;13.25;nan;101056.53;5031173;28;20076;-61
2022/09/16 08:15:44;;;;;;;5.47;1.25;;;;;;;13.38;nan;101055.97;5032224;28;20358;-60
2022/09/16 08:18:09;;;;;;;7.00;1.60;;;;;;;13.06;nan;100985.00;5032258;28;20487;-61
2022/09/16 08:20:35;;;;;;;4.95;1.08;;;;;;;13.22;nan;101057.47;5031897;28;20034;-61
2022/09/16 08:23:01;;;;;;;4.75;1.00;;;;;;;13.15;nan;101077.16;5032388;28;20037;-61
2022/09/16 08:25:26;;;;;;;4.38;1.02;;;;;;;13.09;nan;101069.47;5032071;28;20033;-61
2022/09/16 08:27:51;;;;;;;5.35;1.10;;;;;;;12.92;nan;101067.44;5032029;28;20457;-59
2022/09/16 08:30:17;;;;;;;7.13;0.80;;;;;;;12.81;nan;101051.13;5032017;28;20056;-61
2022/09/16 08:32:42;;;;;;;3.28;1.10;;;;;;;12.71;nan;101070.91;5030811;28;20473;-61
2022/09/16 08:35:08;;;;;;;4.20;0.80;;;;;;;12.61;nan;101063.38;5030398;28;20144;-58
2022/09/16 08:37:33;;;;;;;2.03;0.82;;;;;;;12.44;nan;101019.09;5031956;28;20488;-61
2022/09/16 08:39:59;;;;;;;3.25;0.80;;;;;;;13.36;nan;101027.88;5032039;28;20037;-62
2022/09/16 08:42:34;;;;;;;2.17;0.90;;;;;;;15.01;nan;101070.88;5031413;28;20029;-59
2022/09/16 08:45:08;;;;;;;8.88;2.08;;;;;;;15.43;nan;101121.88;5032094;28;20138;-62
2022/09/16 08:48:02;;;;;;;4.28;1.30;;;;;;;15.14;nan;101139.19;5031456;28;20108;-61
2022/09/16 08:50:31;;;;;;;4.53;0.90;;;;;;;14.35;nan;101127.75;5030239;28;20033;-61
2022/09/16 08:52:58;;;;;;;3.35;0.80;;;;;;;13.13;nan;101062.28;5030347;28;20037;-59
2022/09/16 08:55:45;;;;;;;3.70;1.38;;;;;;;12.68;nan;101049.88;5031584;28;20049;-60
2022/09/16 08:58:24;;;;;;;3.60;1.48;;;;;;;12.80;nan;101111.97;5031440;28;20196;-60
2022/09/16 09:00:56;;;;;;;6.03;1.35;;;;;;;12.34;nan;101039.72;5030545;28;20032;-59
2022/09/16 09:03:36;;;;;;;6.10;1.08;;;;;;;12.49;nan;101062.06;5030260;28;20036;-59
2022/09/16 09:06:05;;;;;;;4.23;0.80;;;;;;;13.07;nan;101051.91;5031575;28;20033;-60
2022/09/16 09:08:58;;;;;;;3.10;0.75;;;;;;;14.19;nan;101108.97;5031533;28;20279;-60
2022/09/16 09:11:38;;;;;;;7.35;1.40;;;;;;;14.91;nan;101104.91;5031216;28;20128;-61
2022/09/16 09:14:32;;;;;;;4.10;0.88;;;;;;;15.71;nan;101126.72;5029909;28;20124;-60
2022/09/16 09:17:32;;;;;;;5.38;1.20;;;;;;;15.67;nan;101078.25;5030108;28;20472;-60
2022/09/16 09:20:27;;;;;;;3.57;0.80;;;;;;;15.25;nan;101056.44;5031774;28;20030;-60
2022/09/16 09:23:21;;;;;;;3.08;1.00;;;;;;;14.95;nan;101117.06;5031229;28;20037;-59
2022/09/16 09:26:22;;;;;;;3.17;0.60;;;;;;;14.59;nan;101110.81;5022003;28;20095;-60
2022/09/16 09:29:03;;;;;;;3.30;1.00;;;;;;;14.31;nan;101110.25;5030181;28;20103;-59
2022/09/16 09:31:41;;;;;;;4.55;1.15;;;;;;;13.87;nan;101106.84;5030563;28;20128;-60
2022/09/16 09:34:20;;;;;;;5.28;0.77;;;;;;;13.82;nan;101116.75;5031343;28;20033;-59
2022/09/16 09:37:09;;;;;;;14.93;2.15;;;;;;;13.67;nan;101120.03;5030279;28;20036;-59
2022/09/16 09:39:41;;;;;;;4.20;1.00;;;;;;;13.45;nan;101118.25;5029863;28;20060;-60
2022/09/16 09:42:20;;;;;;;5.57;1.10;;;;;;;13.52;nan;101100.34;5030968;28;20506;-59
2022/09/16 09:44:57;;;;;;;4.80;1.10;;;;;;;13.77;nan;101095.78;5031409;28;20043;-61
2022/09/16 09:47:46;;;;;;;4.90;1.30;;;;;;;13.68;nan;101050.34;5013218;28;20037;-59
2022/09/16 09:50:25;;;;;;;8.68;0.90;;;;;;;14.14;nan;101103.03;5030897;28;20037;-60
2022/09/16 09:53:05;;;;;;;5.63;1.80;;;;;;;14.22;nan;101037.38;5030807;28;20030;-60
2022/09/16 09:55:33;;;;;;;5.80;0.90;;;;;;;14.72;nan;101042.19;5029638;28;20080;-58
2022/09/16 09:58:11;;;;;;;10.40;1.35;;;;;;;15.21;nan;101102.59;5029502;28;20034;-62
2022/09/16 10:00:36;;;;;;;6.28;1.20;;;;;;;15.09;nan;101096.09;5029401;28;20029;-60
2022/09/16 10:03:13;;;;;;;8.27;1.63;;;;;;;14.90;nan;101110.28;5029301;28;20037;-60
2022/09/16 10:05:39;;;;;;;9.07;1.92;;;;;;;14.76;nan;101113.56;5030672;28;20044;-61
2022/09/16 10:08:17;;;;;;;7.32;1.42;;;;;;;14.39;nan;101095.78;5030744;28;20029;-60
2022/09/16 10:10:49;;;;;;;5.22;1.15;;;;;;;14.26;nan;101091.06;5029522;28;20030;-59
2022/09/16 10:13:16;;;;;;;6.25;1.55;;;;;;;14.00;nan;101085.09;5030508;28;20045;-60
2022/09/16 10:15:42;;;;;;;4.63;1.00;;;;;;;13.44;nan;101034.56;5030890;28;20045;-61
2022/09/16 10:18:22;;;;;;;4.00;0.90;;;;;;;13.87;nan;101099.75;5030608;28;20036;-62
2022/09/16 10:21:08;;;;;;;7.50;1.30;;;;;;;13.80;nan;101029.53;5029363;28;20049;-59
2022/09/16 10:23:34;;;;;;;3.58;1.00;;;;;;;14.16;nan;101018.25;5030527;28;20766;-59
2022/09/16 10:26:05;;;;;;;2.05;0.63;;;;;;;14.49;nan;101041.47;5029132;28;20030;-59
2022/09/16 10:28:30;;;;;;;3.40;0.90;;;;;;;14.80;nan;101101.88;5030510;28;20033;-61
2022/09/16 10:30:57;;;;;;;4.93;1.15;;;;;;;14.61;nan;101096.56;5029398;28;20033;-59
2022/09/16 10:33:36;;;;;;;4.18;1.48;;;;;;;14.73;nan;101108.41;5030755;28;20064;-60
2022/09/16 10:36:04;;;;;;;5.53;1.42;;;;;;;14.85;nan;101097.25;5030384;28;20488;-60
2022/09/16 10:38:41;;;;;;;5.90;1.35;;;;;;;14.61;nan;101085.09;5030762;28;20065;-60
2022/09/16 10:41:08;;;;;;;4.05;1.70;;;;;;;15.17;nan;101115.16;5029313;28;20025;-59
2022/09/16 10:43:36;;;;;;;2.70;0.90;;;;;;;15.37;nan;101114.22;5031411;28;20120;-60
2022/09/16 10:46:01;;;;;;;4.18;0.98;;;;;;;15.97;nan;101110.38;5032779;28;20045;-57
2022/09/16 10:48:28;;;;;;;3.15;0.55;;;;;;;16.39;nan;101067.47;5016204;28;20492;-61
2022/09/16 10:50:57;;;;;;;3.55;1.00;;;;;;;17.44;nan;101137.06;5032799;28;20033;-57
2022/09/16 10:53:33;;;;;;;4.75;0.85;;;;;;;17.89;nan;101131.81;5034075;28;20033;-58
2022/09/16 10:56:05;;;;;;;3.60;1.00;;;;;;;18.23;nan;101119.19;5033809;28;20397;-61
2022/09/16 10:58:30;;;;;;;1.90;0.85;;;;;;;18.94;nan;101110.34;5033852;28;20065;-60
2022/09/16 11:01:08;;;;;;;3.42;0.93;;;;;;;20.13;nan;101168.44;5032382;28;20131;-60
2022/09/16 11:03:37;;;;;;;4.30;0.82;;;;;;;20.95;nan;101168.16;5033866;28;20065;-60
2022/09/16 11:06:02;;;;;;;2.42;0.70;;;;;;;21.32;nan;101171.78;5015753;28;20026;-59
2022/09/16 11:08:49;;;;;;;7.03;1.40;;;;;;;21.32;nan;101169.09;5032019;28;20225;-60
2022/09/16 11:11:36;;;;;;;8.93;1.30;;;;;;;19.07;nan;101179.81;5033080;28;20346;-60
2022/09/16 11:14:36;;;;;;;4.53;1.17;;;;;;;17.91;nan;101177.03;5033417;28;20038;-59
2022/09/16 11:17:28;;;;;;;5.63;0.97;;;;;;;16.92;nan;101163.00;5031352;28;20076;-60
2022/09/16 11:20:05;;;;;;;3.10;1.10;;;;;;;17.02;nan;101163.34;5032214;28;20029;-60
2022/09/16 11:22:58;;;;;;;4.40;1.35;;;;;;;18.31;nan;101115.13;5033275;28;20029;-60
2022/09/16 11:25:32;;;;;;;3.35;1.35;;;;;;;18.74;nan;101125.91;5031901;28;20591;-60
2022/09/16 11:28:21;;;;;;;9.40;1.50;;;;;;;19.59;nan;101183.59;5033126;28;20026;-59
2022/09/16 11:31:07;;;;;;;4.90;1.02;;;;;;;19.78;nan;101177.94;5031867;28;20033;-59
2022/09/16 11:33:42;;;;;;;3.17;1.08;;;;;;;19.15;nan;101182.84;5030847;28;20049;-59
2022/09/16 11:36:29;;;;;;;4.22;1.10;;;;;;;17.64;nan;101190.09;5032914;28;20560;-60
2022/09/16 11:39:08;;;;;;;5.22;1.30;;;;;;;16.70;nan;101173.91;5032919;28;20029;-61
2022/09/16 11:41:54;;;;;;;8.07;1.23;;;;;;;16.26;nan;101162.00;5031461;28;20056;-59
2022/09/16 11:44:19;;;;;;;4.43;1.00;;;;;;;16.27;nan;101166.41;5032641;28;20095;-60
2022/09/16 11:47:09;;;;;;;8.00;1.20;;;;;;;16.81;nan;101157.41;5032574;28;20037;-60
2022/09/16 11:49:56;;;;;;;5.40;1.52;;;;;;;17.94;nan;101168.84;5032867;28;20033;-60
2022/09/16 11:52:55;;;;;;;5.65;2.00;;;;;;;18.52;nan;101137.84;5032613;28;20029;-57
2022/09/16 11:55:27;;;;;;;8.70;1.80;;;;;;;20.34;nan;101192.94;5031944;28;20481;-60
2022/09/16 11:58:02;;;;;;;7.28;1.73;;;;;;;20.14;nan;101154.09;5031269;28;20029;-59
2022/09/16 12:00:30;;;;;;;6.03;1.10;;;;;;;19.38;nan;101162.75;5014647;28;20037;-60